sensor_id;sensor_type;location;lat;lon;timestamp;P1;durP1;ratioP1;P2;durP2;ratioP2
39728;SDS011;25402;42.004;23.088;2023-04-10T00:00:44;16.70;;;10.13;;
39728;SDS011;25402;42.004;23.088;2023-04-10T00:03:13;20.08;;;10.65;;
39728;SDS011;25402;42.004;23.088;2023-04-10T00:05:43;16.33;;;10.70;;
39728;SDS011;25402;42.004;23.088;2023-04-10T00:08:10;21.02;;;10.55;;
39728;SDS011;25402;42.004;23.088;2023-04-10T00:10:37;16.20;;;10.10;;
39728;SDS011;25402;42.004;23.088;2023-04-10T00:13:04;14.52;;;9.70;;
39728;SDS011;25402;42.004;23.088;2023-04-10T00:15:30;17.10;;;10.10;;
39728;SDS011;25402;42.004;23.088;2023-04-10T00:17:57;15.48;;;10.50;;
39728;SDS011;25402;42.004;23.088;2023-04-10T00:20:25;16.27;;;10.80;;
39728;SDS011;25402;42.004;23.088;2023-04-10T00:22:52;16.25;;;10.43;;
39728;SDS011;25402;42.004;23.088;2023-04-10T00:25:19;15.68;;;10.60;;
39728;SDS011;25402;42.004;23.088;2023-04-10T00:27:47;15.02;;;9.95;;
39728;SDS011;25402;42.004;23.088;2023-04-10T00:30:13;18.83;;;10.73;;
39728;SDS011;25402;42.004;23.088;2023-04-10T00:32:40;22.38;;;12.32;;
39728;SDS011;25402;42.004;23.088;2023-04-10T00:35:08;19.25;;;11.40;;
39728;SDS011;25402;42.004;23.088;2023-04-10T00:37:36;20.10;;;10.95;;
39728;SDS011;25402;42.004;23.088;2023-04-10T00:40:03;20.30;;;13.00;;
39728;SDS011;25402;42.004;23.088;2023-04-10T00:42:30;20.67;;;12.70;;
39728;SDS011;25402;42.004;23.088;2023-04-10T00:44:57;25.13;;;13.77;;
39728;SDS011;25402;42.004;23.088;2023-04-10T00:47:23;29.05;;;14.65;;
39728;SDS011;25402;42.004;23.088;2023-04-10T00:49:50;28.05;;;16.00;;
39728;SDS011;25402;42.004;23.088;2023-04-10T00:52:17;25.90;;;15.45;;
39728;SDS011;25402;42.004;23.088;2023-04-10T00:54:46;25.70;;;15.05;;
39728;SDS011;25402;42.004;23.088;2023-04-10T00:57:13;24.85;;;14.45;;
39728;SDS011;25402;42.004;23.088;2023-04-10T00:59:40;26.40;;;15.43;;
39728;SDS011;25402;42.004;23.088;2023-04-10T01:02:06;24.48;;;14.77;;
39728;SDS011;25402;42.004;23.088;2023-04-10T01:04:34;26.38;;;15.27;;
39728;SDS011;25402;42.004;23.088;2023-04-10T01:07:03;23.95;;;14.52;;
39728;SDS011;25402;42.004;23.088;2023-04-10T01:09:34;25.02;;;14.98;;
39728;SDS011;25402;42.004;23.088;2023-04-10T01:12:10;28.80;;;16.13;;
39728;SDS011;25402;42.004;23.088;2023-04-10T01:14:41;29.30;;;15.30;;
39728;SDS011;25402;42.004;23.088;2023-04-10T01:17:12;27.20;;;15.48;;
39728;SDS011;25402;42.004;23.088;2023-04-10T01:19:57;27.90;;;14.77;;
39728;SDS011;25402;42.004;23.088;2023-04-10T01:22:28;25.33;;;14.57;;
39728;SDS011;25402;42.004;23.088;2023-04-10T01:25:01;26.80;;;15.48;;
39728;SDS011;25402;42.004;23.088;2023-04-10T01:27:35;27.10;;;16.08;;
39728;SDS011;25402;42.004;23.088;2023-04-10T01:30:07;25.35;;;15.32;;
39728;SDS011;25402;42.004;23.088;2023-04-10T01:32:37;26.25;;;15.18;;
39728;SDS011;25402;42.004;23.088;2023-04-10T01:35:05;26.08;;;14.93;;
39728;SDS011;25402;42.004;23.088;2023-04-10T01:37:33;20.83;;;12.68;;
39728;SDS011;25402;42.004;23.088;2023-04-10T01:40:03;20.58;;;12.50;;
39728;SDS011;25402;42.004;23.088;2023-04-10T01:42:33;19.73;;;12.25;;
39728;SDS011;25402;42.004;23.088;2023-04-10T01:45:00;20.92;;;12.43;;
39728;SDS011;25402;42.004;23.088;2023-04-10T01:47:29;21.13;;;12.43;;
39728;SDS011;25402;42.004;23.088;2023-04-10T01:49:56;23.48;;;12.90;;
39728;SDS011;25402;42.004;23.088;2023-04-10T01:52:24;20.00;;;12.27;;
39728;SDS011;25402;42.004;23.088;2023-04-10T01:54:50;19.92;;;11.88;;
39728;SDS011;25402;42.004;23.088;2023-04-10T01:57:18;19.80;;;11.65;;
39728;SDS011;25402;42.004;23.088;2023-04-10T01:59:45;19.67;;;11.73;;
39728;SDS011;25402;42.004;23.088;2023-04-10T02:02:12;19.88;;;11.85;;
39728;SDS011;25402;42.004;23.088;2023-04-10T02:04:40;18.65;;;11.50;;
39728;SDS011;25402;42.004;23.088;2023-04-10T02:07:08;19.10;;;11.68;;
39728;SDS011;25402;42.004;23.088;2023-04-10T02:09:42;19.15;;;11.82;;
39728;SDS011;25402;42.004;23.088;2023-04-10T02:12:12;19.73;;;11.53;;
39728;SDS011;25402;42.004;23.088;2023-04-10T02:14:41;16.83;;;10.75;;
39728;SDS011;25402;42.004;23.088;2023-04-10T02:17:09;17.25;;;10.65;;
39728;SDS011;25402;42.004;23.088;2023-04-10T02:19:36;16.05;;;10.65;;
39728;SDS011;25402;42.004;23.088;2023-04-10T02:22:05;17.10;;;10.82;;
39728;SDS011;25402;42.004;23.088;2023-04-10T02:24:32;16.92;;;10.52;;
39728;SDS011;25402;42.004;23.088;2023-04-10T02:27:00;18.58;;;11.10;;
39728;SDS011;25402;42.004;23.088;2023-04-10T02:29:26;19.27;;;11.05;;
39728;SDS011;25402;42.004;23.088;2023-04-10T02:31:53;17.88;;;10.80;;
39728;SDS011;25402;42.004;23.088;2023-04-10T02:34:20;17.08;;;10.75;;
39728;SDS011;25402;42.004;23.088;2023-04-10T02:36:46;19.85;;;11.10;;
39728;SDS011;25402;42.004;23.088;2023-04-10T02:39:15;18.05;;;10.77;;
39728;SDS011;25402;42.004;23.088;2023-04-10T02:41:41;19.27;;;11.23;;
39728;SDS011;25402;42.004;23.088;2023-04-10T02:44:08;17.35;;;11.10;;
39728;SDS011;25402;42.004;23.088;2023-04-10T02:46:34;25.95;;;11.00;;
39728;SDS011;25402;42.004;23.088;2023-04-10T02:49:01;18.63;;;11.52;;
39728;SDS011;25402;42.004;23.088;2023-04-10T02:51:28;16.33;;;10.32;;
39728;SDS011;25402;42.004;23.088;2023-04-10T02:53:55;16.80;;;10.18;;
39728;SDS011;25402;42.004;23.088;2023-04-10T02:56:23;17.88;;;10.75;;
39728;SDS011;25402;42.004;23.088;2023-04-10T02:58:49;28.25;;;11.73;;
39728;SDS011;25402;42.004;23.088;2023-04-10T03:01:18;20.67;;;12.10;;
39728;SDS011;25402;42.004;23.088;2023-04-10T03:03:46;19.92;;;12.52;;
39728;SDS011;25402;42.004;23.088;2023-04-10T03:06:13;24.65;;;12.55;;
39728;SDS011;25402;42.004;23.088;2023-04-10T03:08:39;24.98;;;13.82;;
39728;SDS011;25402;42.004;23.088;2023-04-10T03:11:06;28.92;;;15.02;;
39728;SDS011;25402;42.004;23.088;2023-04-10T03:13:35;34.83;;;16.08;;
39728;SDS011;25402;42.004;23.088;2023-04-10T03:16:01;43.30;;;16.85;;
39728;SDS011;25402;42.004;23.088;2023-04-10T03:18:28;35.75;;;17.02;;
39728;SDS011;25402;42.004;23.088;2023-04-10T03:20:56;43.83;;;18.05;;
39728;SDS011;25402;42.004;23.088;2023-04-10T03:23:22;37.10;;;18.75;;
39728;SDS011;25402;42.004;23.088;2023-04-10T03:25:49;40.55;;;19.10;;
39728;SDS011;25402;42.004;23.088;2023-04-10T03:28:17;42.30;;;20.77;;
39728;SDS011;25402;42.004;23.088;2023-04-10T03:30:45;41.15;;;19.33;;
39728;SDS011;25402;42.004;23.088;2023-04-10T03:33:12;44.17;;;19.38;;
39728;SDS011;25402;42.004;23.088;2023-04-10T03:35:39;19.73;;;10.55;;
39728;SDS011;25402;42.004;23.088;2023-04-10T03:38:05;27.13;;;11.82;;
39728;SDS011;25402;42.004;23.088;2023-04-10T03:40:32;31.73;;;11.38;;
39728;SDS011;25402;42.004;23.088;2023-04-10T03:42:59;27.70;;;11.50;;
39728;SDS011;25402;42.004;23.088;2023-04-10T03:45:26;23.90;;;11.77;;
39728;SDS011;25402;42.004;23.088;2023-04-10T03:47:54;24.60;;;12.50;;
39728;SDS011;25402;42.004;23.088;2023-04-10T03:50:21;25.27;;;12.07;;
39728;SDS011;25402;42.004;23.088;2023-04-10T03:52:48;23.20;;;11.30;;
39728;SDS011;25402;42.004;23.088;2023-04-10T03:55:14;22.80;;;12.32;;
39728;SDS011;25402;42.004;23.088;2023-04-10T03:57:43;21.02;;;11.85;;
39728;SDS011;25402;42.004;23.088;2023-04-10T04:00:10;23.55;;;11.65;;
39728;SDS011;25402;42.004;23.088;2023-04-10T04:02:39;23.42;;;11.75;;
39728;SDS011;25402;42.004;23.088;2023-04-10T04:05:07;22.73;;;12.70;;
39728;SDS011;25402;42.004;23.088;2023-04-10T04:07:33;17.85;;;10.85;;
39728;SDS011;25402;42.004;23.088;2023-04-10T04:10:00;21.30;;;11.45;;
39728;SDS011;25402;42.004;23.088;2023-04-10T04:12:27;26.85;;;14.15;;
39728;SDS011;25402;42.004;23.088;2023-04-10T04:14:53;25.80;;;12.45;;
39728;SDS011;25402;42.004;23.088;2023-04-10T04:17:20;21.83;;;12.65;;
39728;SDS011;25402;42.004;23.088;2023-04-10T04:19:47;22.75;;;13.20;;
39728;SDS011;25402;42.004;23.088;2023-04-10T04:22:15;20.33;;;12.38;;
39728;SDS011;25402;42.004;23.088;2023-04-10T04:24:42;24.50;;;11.73;;
39728;SDS011;25402;42.004;23.088;2023-04-10T04:27:08;21.73;;;12.45;;
39728;SDS011;25402;42.004;23.088;2023-04-10T04:29:35;23.17;;;12.43;;
39728;SDS011;25402;42.004;23.088;2023-04-10T04:32:02;18.80;;;11.60;;
39728;SDS011;25402;42.004;23.088;2023-04-10T04:34:29;17.65;;;10.65;;
39728;SDS011;25402;42.004;23.088;2023-04-10T04:36:56;20.70;;;11.20;;
39728;SDS011;25402;42.004;23.088;2023-04-10T04:39:24;22.88;;;13.32;;
39728;SDS011;25402;42.004;23.088;2023-04-10T04:41:52;24.38;;;13.13;;
39728;SDS011;25402;42.004;23.088;2023-04-10T04:44:22;21.35;;;13.32;;
39728;SDS011;25402;42.004;23.088;2023-04-10T04:46:54;21.90;;;12.23;;
39728;SDS011;25402;42.004;23.088;2023-04-10T04:49:21;18.58;;;11.52;;
39728;SDS011;25402;42.004;23.088;2023-04-10T04:51:47;24.00;;;13.52;;
39728;SDS011;25402;42.004;23.088;2023-04-10T04:54:15;22.48;;;11.23;;
39728;SDS011;25402;42.004;23.088;2023-04-10T04:56:43;19.80;;;10.50;;
39728;SDS011;25402;42.004;23.088;2023-04-10T04:59:10;17.45;;;10.52;;
39728;SDS011;25402;42.004;23.088;2023-04-10T05:01:41;19.75;;;10.75;;
39728;SDS011;25402;42.004;23.088;2023-04-10T05:04:08;21.52;;;10.52;;
39728;SDS011;25402;42.004;23.088;2023-04-10T05:06:34;24.17;;;11.65;;
39728;SDS011;25402;42.004;23.088;2023-04-10T05:09:04;27.60;;;11.50;;
39728;SDS011;25402;42.004;23.088;2023-04-10T05:11:32;20.27;;;10.20;;
39728;SDS011;25402;42.004;23.088;2023-04-10T05:14:00;16.25;;;10.50;;
39728;SDS011;25402;42.004;23.088;2023-04-10T05:16:28;22.38;;;11.10;;
39728;SDS011;25402;42.004;23.088;2023-04-10T05:18:57;21.02;;;11.30;;
39728;SDS011;25402;42.004;23.088;2023-04-10T05:21:24;18.30;;;10.80;;
39728;SDS011;25402;42.004;23.088;2023-04-10T05:23:51;20.05;;;11.50;;
39728;SDS011;25402;42.004;23.088;2023-04-10T05:26:22;26.10;;;12.75;;
39728;SDS011;25402;42.004;23.088;2023-04-10T05:39:34;32.95;;;17.30;;
39728;SDS011;25402;42.004;23.088;2023-04-10T05:42:01;27.02;;;13.65;;
39728;SDS011;25402;42.004;23.088;2023-04-10T05:44:28;27.88;;;13.98;;
39728;SDS011;25402;42.004;23.088;2023-04-10T05:46:55;28.63;;;14.70;;
39728;SDS011;25402;42.004;23.088;2023-04-10T05:49:21;28.30;;;14.35;;
39728;SDS011;25402;42.004;23.088;2023-04-10T05:51:48;36.08;;;14.68;;
39728;SDS011;25402;42.004;23.088;2023-04-10T05:54:16;36.70;;;16.17;;
39728;SDS011;25402;42.004;23.088;2023-04-10T05:56:45;30.95;;;19.40;;
39728;SDS011;25402;42.004;23.088;2023-04-10T06:15:15;44.33;;;23.13;;
39728;SDS011;25402;42.004;23.088;2023-04-10T06:17:42;38.92;;;19.85;;
39728;SDS011;25402;42.004;23.088;2023-04-10T06:20:09;40.63;;;18.73;;
39728;SDS011;25402;42.004;23.088;2023-04-10T06:22:35;29.73;;;17.30;;
39728;SDS011;25402;42.004;23.088;2023-04-10T06:25:02;38.92;;;19.77;;
39728;SDS011;25402;42.004;23.088;2023-04-10T06:27:29;47.67;;;26.55;;
39728;SDS011;25402;42.004;23.088;2023-04-10T06:29:56;39.22;;;24.25;;
39728;SDS011;25402;42.004;23.088;2023-04-10T06:32:24;46.03;;;29.75;;
39728;SDS011;25402;42.004;23.088;2023-04-10T06:34:51;31.17;;;19.30;;
39728;SDS011;25402;42.004;23.088;2023-04-10T06:37:17;43.33;;;25.48;;
39728;SDS011;25402;42.004;23.088;2023-04-10T06:39:44;38.63;;;24.25;;
39728;SDS011;25402;42.004;23.088;2023-04-10T06:42:11;29.52;;;18.85;;
39728;SDS011;25402;42.004;23.088;2023-04-10T06:44:37;23.02;;;15.45;;
39728;SDS011;25402;42.004;23.088;2023-04-10T06:47:04;25.65;;;15.30;;
39728;SDS011;25402;42.004;23.088;2023-04-10T06:49:34;27.98;;;14.23;;
39728;SDS011;25402;42.004;23.088;2023-04-10T06:52:01;25.50;;;13.73;;
39728;SDS011;25402;42.004;23.088;2023-04-10T06:54:28;23.83;;;14.20;;
39728;SDS011;25402;42.004;23.088;2023-04-10T06:56:55;19.48;;;11.93;;
39728;SDS011;25402;42.004;23.088;2023-04-10T06:59:24;24.88;;;13.98;;
39728;SDS011;25402;42.004;23.088;2023-04-10T07:01:52;25.00;;;15.77;;
39728;SDS011;25402;42.004;23.088;2023-04-10T07:04:18;25.40;;;15.70;;
39728;SDS011;25402;42.004;23.088;2023-04-10T07:06:49;28.25;;;16.05;;
39728;SDS011;25402;42.004;23.088;2023-04-10T07:09:16;29.25;;;16.58;;
39728;SDS011;25402;42.004;23.088;2023-04-10T07:11:43;26.10;;;16.58;;
39728;SDS011;25402;42.004;23.088;2023-04-10T07:14:10;45.10;;;21.73;;
39728;SDS011;25402;42.004;23.088;2023-04-10T07:16:37;45.95;;;26.60;;
39728;SDS011;25402;42.004;23.088;2023-04-10T07:19:03;29.70;;;17.52;;
39728;SDS011;25402;42.004;23.088;2023-04-10T07:21:30;27.67;;;16.50;;
39728;SDS011;25402;42.004;23.088;2023-04-10T07:23:58;26.77;;;15.52;;
39728;SDS011;25402;42.004;23.088;2023-04-10T07:26:25;24.73;;;15.00;;
39728;SDS011;25402;42.004;23.088;2023-04-10T07:28:52;27.75;;;14.32;;
39728;SDS011;25402;42.004;23.088;2023-04-10T07:31:18;34.20;;;15.18;;
39728;SDS011;25402;42.004;23.088;2023-04-10T07:33:45;20.63;;;14.40;;
39728;SDS011;25402;42.004;23.088;2023-04-10T07:36:13;24.15;;;14.15;;
39728;SDS011;25402;42.004;23.088;2023-04-10T07:38:43;21.60;;;14.38;;
39728;SDS011;25402;42.004;23.088;2023-04-10T07:41:13;24.75;;;14.45;;
39728;SDS011;25402;42.004;23.088;2023-04-10T07:43:41;22.73;;;14.13;;
39728;SDS011;25402;42.004;23.088;2023-04-10T07:46:10;20.27;;;12.98;;
39728;SDS011;25402;42.004;23.088;2023-04-10T07:48:38;22.73;;;12.55;;
39728;SDS011;25402;42.004;23.088;2023-04-10T07:51:05;20.15;;;12.45;;
39728;SDS011;25402;42.004;23.088;2023-04-10T07:53:33;26.70;;;11.40;;
39728;SDS011;25402;42.004;23.088;2023-04-10T07:56:00;21.98;;;11.27;;
39728;SDS011;25402;42.004;23.088;2023-04-10T07:58:28;18.98;;;10.80;;
39728;SDS011;25402;42.004;23.088;2023-04-10T08:00:55;17.63;;;11.10;;
39728;SDS011;25402;42.004;23.088;2023-04-10T08:03:22;19.70;;;10.15;;
39728;SDS011;25402;42.004;23.088;2023-04-10T08:05:48;18.55;;;11.13;;
39728;SDS011;25402;42.004;23.088;2023-04-10T08:08:15;19.08;;;10.93;;
39728;SDS011;25402;42.004;23.088;2023-04-10T08:10:42;17.52;;;11.10;;
39728;SDS011;25402;42.004;23.088;2023-04-10T08:13:11;23.73;;;11.32;;
39728;SDS011;25402;42.004;23.088;2023-04-10T08:15:39;22.95;;;12.82;;
39728;SDS011;25402;42.004;23.088;2023-04-10T08:18:06;24.65;;;14.05;;
39728;SDS011;25402;42.004;23.088;2023-04-10T08:20:33;25.40;;;13.25;;
39728;SDS011;25402;42.004;23.088;2023-04-10T08:23:01;20.00;;;11.48;;
39728;SDS011;25402;42.004;23.088;2023-04-10T08:25:28;16.05;;;9.52;;
39728;SDS011;25402;42.004;23.088;2023-04-10T08:27:55;21.30;;;10.45;;
39728;SDS011;25402;42.004;23.088;2023-04-10T08:30:24;19.63;;;10.77;;
39728;SDS011;25402;42.004;23.088;2023-04-10T08:32:53;18.08;;;11.10;;
39728;SDS011;25402;42.004;23.088;2023-04-10T08:35:22;25.00;;;13.15;;
39728;SDS011;25402;42.004;23.088;2023-04-10T08:37:49;18.30;;;9.48;;
39728;SDS011;25402;42.004;23.088;2023-04-10T08:40:16;14.18;;;9.40;;
39728;SDS011;25402;42.004;23.088;2023-04-10T08:42:42;16.20;;;9.25;;
39728;SDS011;25402;42.004;23.088;2023-04-10T08:45:09;14.45;;;8.40;;
39728;SDS011;25402;42.004;23.088;2023-04-10T08:47:36;15.98;;;8.45;;
39728;SDS011;25402;42.004;23.088;2023-04-10T08:50:06;13.77;;;7.88;;
39728;SDS011;25402;42.004;23.088;2023-04-10T08:52:36;12.90;;;7.03;;
39728;SDS011;25402;42.004;23.088;2023-04-10T08:55:04;10.18;;;6.88;;
39728;SDS011;25402;42.004;23.088;2023-04-10T08:57:35;8.90;;;7.00;;
39728;SDS011;25402;42.004;23.088;2023-04-10T09:00:03;9.68;;;6.97;;
39728;SDS011;25402;42.004;23.088;2023-04-10T09:02:30;12.07;;;6.22;;
39728;SDS011;25402;42.004;23.088;2023-04-10T09:04:57;10.70;;;6.38;;
39728;SDS011;25402;42.004;23.088;2023-04-10T09:07:27;13.63;;;6.35;;
39728;SDS011;25402;42.004;23.088;2023-04-10T09:09:54;16.50;;;9.48;;
39728;SDS011;25402;42.004;23.088;2023-04-10T09:12:20;11.68;;;6.15;;
39728;SDS011;25402;42.004;23.088;2023-04-10T09:14:47;16.70;;;9.93;;
39728;SDS011;25402;42.004;23.088;2023-04-10T09:17:18;8.82;;;6.05;;
39728;SDS011;25402;42.004;23.088;2023-04-10T09:19:45;14.80;;;6.88;;
39728;SDS011;25402;42.004;23.088;2023-04-10T09:22:12;35.85;;;8.60;;
39728;SDS011;25402;42.004;23.088;2023-04-10T09:24:42;19.27;;;6.32;;
39728;SDS011;25402;42.004;23.088;2023-04-10T09:27:09;10.88;;;5.70;;
39728;SDS011;25402;42.004;23.088;2023-04-10T09:29:39;9.00;;;6.13;;
39728;SDS011;25402;42.004;23.088;2023-04-10T09:32:06;9.32;;;6.80;;
39728;SDS011;25402;42.004;23.088;2023-04-10T09:34:33;8.25;;;6.30;;
39728;SDS011;25402;42.004;23.088;2023-04-10T09:37:01;12.00;;;5.85;;
39728;SDS011;25402;42.004;23.088;2023-04-10T09:39:32;11.73;;;6.43;;
39728;SDS011;25402;42.004;23.088;2023-04-10T09:42:01;7.47;;;5.82;;
39728;SDS011;25402;42.004;23.088;2023-04-10T09:44:29;17.50;;;6.30;;
39728;SDS011;25402;42.004;23.088;2023-04-10T09:47:14;8.30;;;5.82;;
39728;SDS011;25402;42.004;23.088;2023-04-10T09:49:43;7.68;;;5.88;;
39728;SDS011;25402;42.004;23.088;2023-04-10T09:52:15;10.50;;;6.82;;
39728;SDS011;25402;42.004;23.088;2023-04-10T09:54:42;13.95;;;6.85;;
39728;SDS011;25402;42.004;23.088;2023-04-10T09:57:15;12.48;;;7.53;;
39728;SDS011;25402;42.004;23.088;2023-04-10T09:59:42;9.73;;;6.45;;
39728;SDS011;25402;42.004;23.088;2023-04-10T10:02:11;12.27;;;6.88;;
39728;SDS011;25402;42.004;23.088;2023-04-10T10:04:39;8.50;;;6.20;;
39728;SDS011;25402;42.004;23.088;2023-04-10T10:07:07;11.70;;;6.78;;
39728;SDS011;25402;42.004;23.088;2023-04-10T10:09:34;8.25;;;6.10;;
39728;SDS011;25402;42.004;23.088;2023-04-10T10:12:03;8.18;;;5.80;;
39728;SDS011;25402;42.004;23.088;2023-04-10T10:14:32;8.95;;;5.55;;
39728;SDS011;25402;42.004;23.088;2023-04-10T10:17:01;9.50;;;5.65;;
39728;SDS011;25402;42.004;23.088;2023-04-10T10:19:33;9.00;;;5.82;;
39728;SDS011;25402;42.004;23.088;2023-04-10T10:22:01;8.77;;;5.65;;
39728;SDS011;25402;42.004;23.088;2023-04-10T10:24:29;7.35;;;5.65;;
39728;SDS011;25402;42.004;23.088;2023-04-10T10:26:56;7.97;;;5.38;;
39728;SDS011;25402;42.004;23.088;2023-04-10T10:29:25;6.88;;;5.22;;
39728;SDS011;25402;42.004;23.088;2023-04-10T10:31:54;7.40;;;4.95;;
39728;SDS011;25402;42.004;23.088;2023-04-10T10:34:22;11.32;;;5.95;;
39728;SDS011;25402;42.004;23.088;2023-04-10T10:36:50;6.68;;;5.20;;
39728;SDS011;25402;42.004;23.088;2023-04-10T10:39:21;7.55;;;5.63;;
39728;SDS011;25402;42.004;23.088;2023-04-10T10:41:53;9.82;;;5.70;;
39728;SDS011;25402;42.004;23.088;2023-04-10T10:44:23;9.75;;;6.80;;
39728;SDS011;25402;42.004;23.088;2023-04-10T10:46:57;7.35;;;5.15;;
39728;SDS011;25402;42.004;23.088;2023-04-10T10:52:08;7.72;;;5.68;;
39728;SDS011;25402;42.004;23.088;2023-04-10T10:54:34;7.80;;;5.05;;
39728;SDS011;25402;42.004;23.088;2023-04-10T10:57:06;7.57;;;5.35;;
39728;SDS011;25402;42.004;23.088;2023-04-10T10:59:54;10.50;;;5.40;;
39728;SDS011;25402;42.004;23.088;2023-04-10T11:02:25;6.40;;;4.70;;
39728;SDS011;25402;42.004;23.088;2023-04-10T11:04:52;7.97;;;5.30;;
39728;SDS011;25402;42.004;23.088;2023-04-10T11:07:19;6.80;;;4.47;;
39728;SDS011;25402;42.004;23.088;2023-04-10T11:09:49;5.32;;;4.30;;
39728;SDS011;25402;42.004;23.088;2023-04-10T11:12:16;6.88;;;5.18;;
39728;SDS011;25402;42.004;23.088;2023-04-10T11:14:44;6.38;;;4.82;;
39728;SDS011;25402;42.004;23.088;2023-04-10T11:17:11;9.73;;;5.35;;
39728;SDS011;25402;42.004;23.088;2023-04-10T11:19:59;17.67;;;5.00;;
39728;SDS011;25402;42.004;23.088;2023-04-10T11:22:26;9.02;;;4.95;;
39728;SDS011;25402;42.004;23.088;2023-04-10T11:24:54;9.35;;;5.22;;
39728;SDS011;25402;42.004;23.088;2023-04-10T11:30:29;5.55;;;4.47;;
39728;SDS011;25402;42.004;23.088;2023-04-10T11:32:56;6.47;;;4.70;;
39728;SDS011;25402;42.004;23.088;2023-04-10T11:35:26;7.53;;;5.18;;
39728;SDS011;25402;42.004;23.088;2023-04-10T11:38:11;5.43;;;4.45;;
39728;SDS011;25402;42.004;23.088;2023-04-10T11:40:57;5.35;;;4.57;;
39728;SDS011;25402;42.004;23.088;2023-04-10T11:43:25;8.55;;;5.10;;
39728;SDS011;25402;42.004;23.088;2023-04-10T11:46:00;5.85;;;4.38;;
39728;SDS011;25402;42.004;23.088;2023-04-10T11:48:27;7.20;;;4.72;;
39728;SDS011;25402;42.004;23.088;2023-04-10T11:50:55;7.00;;;4.72;;
39728;SDS011;25402;42.004;23.088;2023-04-10T11:53:24;5.65;;;4.53;;
39728;SDS011;25402;42.004;23.088;2023-04-10T11:55:50;6.28;;;4.80;;
39728;SDS011;25402;42.004;23.088;2023-04-10T11:58:24;13.40;;;4.70;;
39728;SDS011;25402;42.004;23.088;2023-04-10T12:00:55;5.75;;;4.75;;
39728;SDS011;25402;42.004;23.088;2023-04-10T12:03:33;14.57;;;9.25;;
39728;SDS011;25402;42.004;23.088;2023-04-10T12:06:02;7.07;;;5.07;;
39728;SDS011;25402;42.004;23.088;2023-04-10T12:08:29;5.95;;;4.88;;
39728;SDS011;25402;42.004;23.088;2023-04-10T12:11:02;9.90;;;5.68;;
39728;SDS011;25402;42.004;23.088;2023-04-10T12:13:29;7.95;;;5.45;;
39728;SDS011;25402;42.004;23.088;2023-04-10T12:15:56;12.93;;;5.80;;
39728;SDS011;25402;42.004;23.088;2023-04-10T12:18:25;9.18;;;4.47;;
39728;SDS011;25402;42.004;23.088;2023-04-10T12:20:52;9.07;;;4.97;;
39728;SDS011;25402;42.004;23.088;2023-04-10T12:23:22;6.78;;;4.03;;
39728;SDS011;25402;42.004;23.088;2023-04-10T12:25:52;8.73;;;3.60;;
39728;SDS011;25402;42.004;23.088;2023-04-10T12:28:19;5.22;;;3.40;;
39728;SDS011;25402;42.004;23.088;2023-04-10T12:30:46;5.35;;;4.10;;
39728;SDS011;25402;42.004;23.088;2023-04-10T12:33:13;5.63;;;4.15;;
39728;SDS011;25402;42.004;23.088;2023-04-10T12:35:45;7.10;;;3.50;;
39728;SDS011;25402;42.004;23.088;2023-04-10T12:38:12;5.82;;;3.50;;
39728;SDS011;25402;42.004;23.088;2023-04-10T12:43:33;4.22;;;3.53;;
39728;SDS011;25402;42.004;23.088;2023-04-10T12:46:00;6.85;;;3.80;;
39728;SDS011;25402;42.004;23.088;2023-04-10T12:48:27;8.50;;;3.78;;
39728;SDS011;25402;42.004;23.088;2023-04-10T12:50:54;6.45;;;3.83;;
39728;SDS011;25402;42.004;23.088;2023-04-10T12:53:21;4.28;;;3.15;;
39728;SDS011;25402;42.004;23.088;2023-04-10T12:55:55;7.05;;;4.07;;
39728;SDS011;25402;42.004;23.088;2023-04-10T12:58:22;6.63;;;4.88;;
39728;SDS011;25402;42.004;23.088;2023-04-10T13:00:53;7.38;;;3.90;;
39728;SDS011;25402;42.004;23.088;2023-04-10T13:03:20;6.70;;;3.70;;
39728;SDS011;25402;42.004;23.088;2023-04-10T13:05:47;5.05;;;3.70;;
39728;SDS011;25402;42.004;23.088;2023-04-10T13:08:16;5.00;;;4.07;;
39728;SDS011;25402;42.004;23.088;2023-04-10T13:10:43;5.38;;;4.05;;
39728;SDS011;25402;42.004;23.088;2023-04-10T13:13:10;5.25;;;4.25;;
39728;SDS011;25402;42.004;23.088;2023-04-10T13:15:37;7.35;;;4.57;;
39728;SDS011;25402;42.004;23.088;2023-04-10T13:18:06;5.60;;;4.00;;
39728;SDS011;25402;42.004;23.088;2023-04-10T13:20:34;5.28;;;3.78;;
39728;SDS011;25402;42.004;23.088;2023-04-10T13:23:01;5.15;;;3.92;;
39728;SDS011;25402;42.004;23.088;2023-04-10T13:25:31;10.20;;;3.90;;
39728;SDS011;25402;42.004;23.088;2023-04-10T13:27:58;5.82;;;3.80;;
39728;SDS011;25402;42.004;23.088;2023-04-10T13:30:26;5.43;;;3.70;;
39728;SDS011;25402;42.004;23.088;2023-04-10T13:32:55;5.20;;;3.70;;
39728;SDS011;25402;42.004;23.088;2023-04-10T13:35:27;7.10;;;3.85;;
39728;SDS011;25402;42.004;23.088;2023-04-10T13:37:54;4.88;;;3.75;;
39728;SDS011;25402;42.004;23.088;2023-04-10T13:40:22;6.53;;;4.07;;
39728;SDS011;25402;42.004;23.088;2023-04-10T13:42:52;4.85;;;3.83;;
39728;SDS011;25402;42.004;23.088;2023-04-10T13:45:22;5.05;;;3.72;;
39728;SDS011;25402;42.004;23.088;2023-04-10T13:47:49;4.00;;;3.33;;
39728;SDS011;25402;42.004;23.088;2023-04-10T13:50:17;5.63;;;3.30;;
39728;SDS011;25402;42.004;23.088;2023-04-10T13:52:48;4.43;;;3.10;;
39728;SDS011;25402;42.004;23.088;2023-04-10T13:55:15;3.70;;;3.05;;
39728;SDS011;25402;42.004;23.088;2023-04-10T13:57:42;4.97;;;3.40;;
39728;SDS011;25402;42.004;23.088;2023-04-10T14:00:11;5.18;;;3.33;;
39728;SDS011;25402;42.004;23.088;2023-04-10T14:02:38;4.97;;;3.13;;
39728;SDS011;25402;42.004;23.088;2023-04-10T14:05:05;5.88;;;3.30;;
39728;SDS011;25402;42.004;23.088;2023-04-10T14:38:34;5.38;;;4.00;;
39728;SDS011;25402;42.004;23.088;2023-04-10T15:14:40;7.47;;;4.60;;
39728;SDS011;25402;42.004;23.088;2023-04-10T15:17:07;7.00;;;4.93;;
39728;SDS011;25402;42.004;23.088;2023-04-10T15:19:33;7.03;;;4.13;;
39728;SDS011;25402;42.004;23.088;2023-04-10T15:22:00;6.15;;;3.92;;
39728;SDS011;25402;42.004;23.088;2023-04-10T15:24:26;6.50;;;4.22;;
39728;SDS011;25402;42.004;23.088;2023-04-10T15:26:53;4.97;;;3.50;;
39728;SDS011;25402;42.004;23.088;2023-04-10T15:29:21;8.40;;;3.65;;
39728;SDS011;25402;42.004;23.088;2023-04-10T15:31:50;6.75;;;4.25;;
39728;SDS011;25402;42.004;23.088;2023-04-10T15:34:16;6.82;;;4.13;;
39728;SDS011;25402;42.004;23.088;2023-04-10T15:36:43;5.82;;;3.75;;
39728;SDS011;25402;42.004;23.088;2023-04-10T15:39:10;14.02;;;4.45;;
39728;SDS011;25402;42.004;23.088;2023-04-10T15:41:36;6.15;;;4.25;;
39728;SDS011;25402;42.004;23.088;2023-04-10T15:44:03;5.57;;;4.15;;
39728;SDS011;25402;42.004;23.088;2023-04-10T15:46:32;7.95;;;4.28;;
39728;SDS011;25402;42.004;23.088;2023-04-10T15:49:01;6.75;;;4.75;;
39728;SDS011;25402;42.004;23.088;2023-04-10T15:51:28;9.50;;;5.05;;
39728;SDS011;25402;42.004;23.088;2023-04-10T15:53:54;7.25;;;4.97;;
39728;SDS011;25402;42.004;23.088;2023-04-10T15:56:21;8.73;;;5.38;;
39728;SDS011;25402;42.004;23.088;2023-04-10T15:58:47;8.23;;;5.05;;
39728;SDS011;25402;42.004;23.088;2023-04-10T16:01:14;8.43;;;4.72;;
39728;SDS011;25402;42.004;23.088;2023-04-10T16:03:41;8.32;;;5.35;;